createdAt,value
2018-12-15T16:42:04.724Z,1.68
2018-12-15T16:43:04.661Z,1.58
2018-12-15T16:44:04.716Z,1.74
2018-12-15T16:45:04.759Z,1.73
2018-12-15T16:46:04.807Z,1.71
2018-12-15T16:47:04.868Z,1.68
2018-12-15T16:48:04.920Z,1.70
2018-12-15T16:49:06.107Z,1.71
2018-12-15T16:50:05.016Z,1.74
2018-12-15T16:51:05.072Z,1.76
2018-12-15T16:52:05.168Z,1.74
2018-12-15T16:53:05.176Z,1.71
2018-12-15T16:54:05.232Z,1.67
2018-12-15T16:55:05.288Z,1.80
2018-12-15T16:56:05.341Z,1.77
2018-12-15T16:57:05.409Z,1.73
2018-12-15T16:58:05.460Z,1.60
2018-12-15T16:59:05.505Z,1.68
2018-12-15T17:00:05.560Z,1.58
2018-12-15T17:01:05.618Z,1.60
2018-12-15T17:02:05.681Z,1.62
2018-12-15T17:03:05.740Z,1.62
2018-12-15T17:04:05.785Z,1.66
2018-12-15T17:05:05.844Z,1.67
2018-12-15T17:06:06.034Z,1.67
2018-12-15T17:07:06.337Z,1.68
2018-12-15T17:08:06.180Z,1.62
2018-12-15T17:09:06.060Z,1.70
2018-12-15T17:10:06.125Z,1.60
2018-12-15T17:11:06.201Z,1.74
2018-12-15T17:12:06.290Z,1.62
2018-12-15T17:13:06.289Z,1.58
2018-12-15T17:14:06.397Z,1.62
2018-12-15T17:15:06.505Z,1.62
2018-12-15T17:16:07.329Z,1.67
2018-12-15T17:17:24.899Z,1.59
2018-12-15T17:18:06.609Z,1.67
2018-12-15T17:19:06.690Z,1.67
2018-12-15T17:20:08.282Z,1.63
2018-12-15T17:21:09.326Z,1.66
2018-12-15T17:22:06.830Z,1.73
2018-12-15T17:23:07.298Z,1.62
2018-12-15T17:24:07.122Z,1.49
2018-12-15T17:25:07.270Z,1.53
2018-12-15T17:26:07.670Z,1.44
2018-12-15T17:27:07.140Z,1.52
2018-12-15T17:28:07.272Z,1.59
2018-12-15T17:29:07.262Z,1.62
2018-12-15T17:30:07.249Z,1.53
2018-12-15T17:31:07.306Z,1.50
2018-12-15T17:32:07.365Z,1.53
2018-12-15T17:33:07.419Z,1.55
2018-12-15T17:34:07.482Z,1.49
2018-12-15T17:35:07.538Z,1.45
2018-12-15T17:36:07.586Z,1.52
2018-12-15T17:37:07.638Z,1.55
2018-12-15T17:38:07.701Z,1.56
2018-12-15T17:39:07.762Z,1.58
2018-12-15T17:40:07.854Z,1.44
2018-12-15T17:41:07.867Z,1.55
2018-12-15T17:42:07.926Z,1.52
2018-12-15T17:43:07.991Z,1.42
2018-12-15T17:44:08.050Z,1.48
2018-12-15T17:45:08.119Z,1.49
2018-12-15T17:46:08.155Z,1.40
2018-12-15T17:47:08.207Z,1.48
2018-12-15T17:48:08.265Z,1.40
2018-12-15T17:49:08.423Z,1.48
2018-12-15T17:50:08.383Z,1.41
2018-12-15T17:51:08.435Z,1.38
2018-12-15T17:52:08.491Z,1.40
2018-12-15T17:53:08.547Z,1.38
2018-12-15T17:54:08.611Z,1.38
2018-12-15T17:55:08.668Z,1.40
2018-12-15T17:56:08.718Z,1.44
2018-12-15T17:57:08.771Z,1.50
2018-12-15T17:58:14.567Z,1.55
2018-12-15T17:59:08.891Z,1.42
2018-12-15T18:00:09.028Z,1.41
2018-12-15T18:01:09.008Z,1.50
2018-12-15T18:02:09.052Z,1.48
2018-12-15T18:03:09.108Z,1.35
2018-12-15T18:04:09.289Z,1.38
2018-12-15T18:05:09.219Z,1.37
2018-12-15T18:06:09.280Z,1.37
2018-12-15T18:07:09.396Z,1.32
2018-12-15T18:08:09.391Z,1.34
2018-12-15T18:09:09.459Z,1.35
2018-12-15T18:10:09.512Z,1.32
2018-12-15T18:11:09.562Z,1.38
2018-12-15T18:12:09.615Z,1.35
2018-12-15T18:13:09.678Z,1.24
2018-12-15T18:14:09.736Z,1.28
2018-12-15T18:15:09.792Z,1.17
2018-12-15T18:16:09.840Z,1.23
2018-12-15T18:17:09.897Z,1.26
2018-12-15T18:18:09.952Z,1.23
2018-12-15T18:19:10.016Z,1.22
2018-12-15T18:20:10.105Z,1.23
2018-12-15T18:21:10.178Z,1.20
2018-12-15T18:22:10.177Z,1.26
2018-12-15T18:23:10.233Z,1.20
2018-12-15T18:24:10.341Z,1.24
2018-12-15T18:25:10.345Z,1.22
2018-12-15T18:26:10.401Z,1.23
2018-12-15T18:27:10.460Z,1.28
2018-12-15T18:28:10.519Z,1.28
2018-12-15T18:29:10.577Z,1.13
2018-12-15T18:30:10.645Z,1.14
2018-12-15T18:31:10.686Z,1.14
2018-12-15T18:32:10.749Z,1.28
2018-12-15T18:33:10.797Z,1.24
2018-12-15T18:34:10.857Z,1.19
2018-12-15T18:35:10.917Z,1.14
2018-12-15T18:36:10.965Z,1.06
2018-12-15T18:37:11.021Z,1.06
2018-12-15T18:38:11.078Z,1.05
2018-12-15T18:39:11.182Z,1.13
2018-12-15T18:40:11.191Z,1.16
2018-12-15T18:41:11.265Z,1.06
2018-12-15T18:42:11.302Z,1.06
2018-12-15T18:43:11.358Z,1.01
2018-12-15T18:44:11.422Z,1.13
2018-12-15T18:45:11.479Z,1.17
2018-12-15T18:46:11.527Z,1.26
2018-12-15T18:47:11.582Z,1.26
2018-12-15T18:48:11.638Z,1.16
2018-12-15T18:49:11.703Z,1.20
2018-12-15T18:50:11.758Z,1.20
2018-12-15T18:51:16.381Z,1.16
2018-12-15T18:52:11.858Z,1.20
2018-12-15T18:53:11.919Z,1.14
2018-12-15T18:54:11.982Z,1.14
2018-12-15T18:55:12.039Z,1.12
2018-12-15T18:56:12.086Z,1.14
2018-12-15T18:57:12.142Z,1.05
2018-12-15T18:58:12.198Z,1.19
2018-12-15T18:59:12.280Z,1.12
2018-12-15T19:00:12.314Z,1.13
2018-12-15T19:01:12.367Z,1.14
2018-12-15T19:02:12.455Z,1.06
2018-12-15T19:03:12.479Z,1.06
2018-12-15T19:04:12.543Z,1.14
2018-12-15T19:05:12.598Z,1.16
2018-12-15T19:06:12.649Z,1.13
2018-12-15T19:07:12.707Z,1.12
2018-12-15T19:08:12.759Z,1.12
2018-12-15T19:09:13.092Z,1.06
2018-12-15T19:10:12.878Z,1.12
2018-12-15T19:11:12.927Z,1.17
2018-12-15T19:12:12.983Z,1.02
2018-12-15T19:13:13.039Z,1.10
2018-12-15T19:14:13.207Z,1.05
2018-12-15T19:15:13.152Z,0.99
2018-12-15T19:16:13.443Z,0.96
2018-12-15T19:17:13.264Z,1.13
2018-12-15T19:18:13.319Z,1.16
2018-12-15T19:19:13.405Z,1.04
2018-12-15T19:20:13.439Z,1.13
2018-12-15T19:21:13.487Z,1.10
2018-12-15T19:22:13.543Z,1.06
2018-12-15T19:23:13.599Z,1.06
2018-12-15T19:24:13.664Z,1.17
2018-12-15T19:25:13.717Z,1.13
2018-12-15T19:26:13.770Z,1.23
2018-12-15T19:27:13.824Z,1.20
2018-12-15T19:28:13.884Z,1.22
2018-12-15T19:29:13.975Z,1.17
2018-12-15T19:30:13.997Z,1.10
2018-12-15T19:31:14.048Z,1.17
2018-12-15T19:32:14.104Z,1.06
2018-12-15T19:33:14.156Z,1.02
2018-12-15T19:34:17.442Z,1.17
2018-12-15T19:35:14.598Z,1.20
2018-12-15T19:36:14.328Z,1.24
2018-12-15T19:37:14.381Z,1.19
2018-12-15T19:38:14.437Z,1.06
2018-12-15T19:39:15.225Z,1.06
2018-12-15T19:40:14.585Z,1.08
2018-12-15T19:41:14.613Z,1.02
2018-12-15T19:42:14.661Z,1.05
2018-12-15T19:43:14.713Z,1.01
2018-12-15T19:44:14.773Z,0.96
2018-12-15T19:45:14.836Z,1.01
2018-12-15T19:46:14.893Z,0.99
2018-12-15T19:47:14.945Z,1.06
2018-12-15T19:48:14.997Z,1.05
2018-12-15T19:49:15.173Z,1.04
2018-12-15T19:50:15.174Z,1.02
2018-12-15T19:51:15.165Z,1.05
2018-12-15T19:52:15.226Z,1.13
2018-12-15T19:53:15.277Z,1.04
2018-12-15T19:54:15.335Z,1.12
2018-12-15T19:55:15.402Z,1.10
2018-12-15T19:56:15.450Z,1.10
2018-12-15T19:57:15.505Z,1.04
2018-12-15T19:58:15.558Z,1.10
2018-12-15T19:59:15.625Z,1.01
2018-12-15T20:00:15.674Z,1.05
2018-12-15T20:01:15.730Z,1.14
2018-12-15T20:02:15.778Z,1.04
2018-12-15T20:03:15.878Z,1.04
2018-12-15T20:04:15.890Z,0.96
2018-12-15T20:05:15.992Z,0.96
2018-12-15T20:06:16.010Z,1.01
2018-12-15T20:07:16.062Z,0.91
2018-12-15T20:08:16.114Z,1.01
2018-12-15T20:09:16.654Z,0.96
2018-12-15T20:10:16.226Z,0.94
2018-12-15T20:11:16.302Z,1.02
2018-12-15T20:12:16.338Z,0.96
2018-12-15T20:13:16.395Z,0.98
2018-12-15T20:14:16.450Z,0.95
2018-12-15T20:15:16.506Z,0.95
2018-12-15T20:16:16.576Z,0.92
2018-12-15T20:17:16.627Z,1.02
2018-12-15T20:18:16.675Z,0.95
2018-12-15T20:19:16.732Z,1.01
2018-12-15T20:20:16.782Z,0.94
2018-12-15T20:21:16.847Z,0.96
2018-12-15T20:22:16.906Z,0.96
2018-12-15T20:23:17.211Z,0.96
2018-12-15T20:24:17.007Z,0.92
2018-12-15T20:25:17.067Z,0.92
2018-12-15T20:26:17.119Z,0.92
2018-12-15T20:27:17.271Z,0.81
2018-12-15T20:28:17.232Z,0.81
2018-12-15T20:29:17.288Z,0.88
2018-12-15T20:30:17.344Z,0.87
2018-12-15T20:31:17.399Z,0.92
2018-12-15T20:32:17.467Z,0.91
2018-12-15T20:33:17.516Z,0.87
2018-12-15T20:34:17.568Z,0.86
2018-12-15T20:35:17.620Z,0.87
2018-12-15T20:36:17.676Z,0.87
2018-12-15T20:37:17.739Z,0.92
2018-12-15T20:38:17.800Z,1.01
2018-12-15T20:39:17.844Z,0.99
2018-12-15T20:40:17.900Z,0.96
2018-12-15T20:41:19.272Z,0.98
2018-12-15T20:42:18.022Z,1.04
2018-12-15T20:43:18.076Z,1.05
2018-12-15T20:44:18.132Z,1.04
2018-12-15T20:45:18.180Z,1.01
2018-12-15T20:46:18.241Z,0.99
2018-12-15T20:47:18.302Z,0.99
2018-12-15T20:48:18.356Z,1.02
2018-12-15T20:49:18.405Z,0.99
2018-12-15T20:50:18.461Z,1.05
2018-12-15T20:51:18.525Z,1.02
2018-12-15T20:52:18.581Z,1.02
2018-12-15T20:53:18.633Z,1.04
2018-12-15T20:54:18.681Z,1.05
2018-12-15T20:55:18.737Z,1.01
2018-12-15T20:56:18.793Z,0.87
2018-12-15T20:57:18.883Z,0.95
2018-12-15T20:58:19.016Z,0.94
2018-12-15T20:59:18.964Z,0.87
2018-12-15T21:00:19.028Z,0.91
2018-12-15T21:01:19.073Z,0.91
2018-12-15T21:02:19.129Z,0.91
2018-12-15T21:03:19.231Z,0.98
2018-12-15T21:04:19.242Z,0.95
2018-12-15T21:05:19.301Z,0.98
2018-12-15T21:06:19.365Z,0.96
2018-12-15T21:07:19.409Z,1.04
2018-12-15T21:08:19.469Z,1.02
2018-12-15T21:09:19.530Z,0.96
2018-12-15T21:10:19.577Z,0.88
2018-12-15T21:11:24.129Z,0.94
2018-12-15T21:12:19.716Z,0.96
2018-12-15T21:13:19.750Z,0.94
2018-12-15T21:14:19.808Z,0.87
2018-12-15T21:15:19.855Z,0.87
2018-12-15T21:16:20.050Z,0.83
2018-12-15T21:17:19.968Z,0.92
2018-12-15T21:18:20.026Z,0.94
2018-12-15T21:19:20.086Z,0.87
2018-12-15T21:20:20.135Z,0.94
2018-12-15T21:21:20.189Z,0.87
2018-12-15T21:22:20.511Z,0.87
2018-12-15T21:23:20.306Z,0.88
2018-12-15T21:24:20.366Z,0.91
2018-12-15T21:25:20.410Z,0.87
2018-12-15T21:26:20.602Z,0.94
